sensor_id;sensor_type;location;lat;lon;timestamp;P1;durP1;ratioP1;P2;durP2;ratioP2
21569;SDS011;57598;50.888;4.746;2022-08-01T00:00:22;30.92;;;29.13;;
21569;SDS011;57598;50.888;4.746;2022-08-01T00:02:50;30.80;;;29.00;;
21569;SDS011;57598;50.888;4.746;2022-08-01T00:05:17;30.33;;;28.63;;
21569;SDS011;57598;50.888;4.746;2022-08-01T00:07:44;30.95;;;29.10;;
21569;SDS011;57598;50.888;4.746;2022-08-01T00:10:13;31.13;;;29.33;;
21569;SDS011;57598;50.888;4.746;2022-08-01T00:12:42;31.38;;;29.50;;
21569;SDS011;57598;50.888;4.746;2022-08-01T00:15:11;31.35;;;29.55;;
21569;SDS011;57598;50.888;4.746;2022-08-01T00:17:40;32.47;;;30.58;;
21569;SDS011;57598;50.888;4.746;2022-08-01T00:20:09;31.60;;;29.70;;
21569;SDS011;57598;50.888;4.746;2022-08-01T00:22:38;32.83;;;30.30;;
21569;SDS011;57598;50.888;4.746;2022-08-01T00:25:05;30.98;;;29.17;;
21569;SDS011;57598;50.888;4.746;2022-08-01T00:27:33;32.47;;;30.35;;
21569;SDS011;57598;50.888;4.746;2022-08-01T00:30:01;31.33;;;29.52;;
21569;SDS011;57598;50.888;4.746;2022-08-01T00:32:29;32.50;;;30.60;;
21569;SDS011;57598;50.888;4.746;2022-08-01T00:34:56;31.83;;;30.02;;
21569;SDS011;57598;50.888;4.746;2022-08-01T00:37:23;31.40;;;29.60;;
21569;SDS011;57598;50.888;4.746;2022-08-01T00:39:50;32.08;;;30.17;;
21569;SDS011;57598;50.888;4.746;2022-08-01T00:42:17;32.58;;;30.67;;
21569;SDS011;57598;50.888;4.746;2022-08-01T00:44:45;33.08;;;31.08;;
21569;SDS011;57598;50.888;4.746;2022-08-01T00:47:13;32.38;;;30.48;;
21569;SDS011;57598;50.888;4.746;2022-08-01T00:49:40;33.90;;;31.90;;
21569;SDS011;57598;50.888;4.746;2022-08-01T00:52:07;34.67;;;32.47;;
21569;SDS011;57598;50.888;4.746;2022-08-01T00:54:35;35.15;;;33.00;;
21569;SDS011;57598;50.888;4.746;2022-08-01T00:57:02;33.75;;;31.85;;
21569;SDS011;57598;50.888;4.746;2022-08-01T00:59:30;32.97;;;31.08;;
21569;SDS011;57598;50.888;4.746;2022-08-01T01:01:57;33.05;;;31.15;;
21569;SDS011;57598;50.888;4.746;2022-08-01T01:04:25;34.30;;;32.30;;
21569;SDS011;57598;50.888;4.746;2022-08-01T01:06:54;33.45;;;31.55;;
21569;SDS011;57598;50.888;4.746;2022-08-01T01:09:31;35.15;;;32.33;;
21569;SDS011;57598;50.888;4.746;2022-08-01T01:12:05;34.92;;;32.83;;
21569;SDS011;57598;50.888;4.746;2022-08-01T01:14:54;34.58;;;32.45;;
21569;SDS011;57598;50.888;4.746;2022-08-01T01:17:28;33.70;;;31.77;;
21569;SDS011;57598;50.888;4.746;2022-08-01T01:20:00;34.72;;;32.63;;
21569;SDS011;57598;50.888;4.746;2022-08-01T01:22:39;34.28;;;32.28;;
21569;SDS011;57598;50.888;4.746;2022-08-01T01:25:19;33.58;;;31.58;;
21569;SDS011;57598;50.888;4.746;2022-08-01T01:28:02;33.67;;;31.67;;
21569;SDS011;57598;50.888;4.746;2022-08-01T01:30:36;34.00;;;32.00;;
21569;SDS011;57598;50.888;4.746;2022-08-01T01:33:07;34.78;;;32.67;;
21569;SDS011;57598;50.888;4.746;2022-08-01T01:35:38;34.15;;;32.15;;
21569;SDS011;57598;50.888;4.746;2022-08-01T01:38:15;34.30;;;32.30;;
21569;SDS011;57598;50.888;4.746;2022-08-01T01:40:45;35.72;;;33.22;;
21569;SDS011;57598;50.888;4.746;2022-08-01T01:43:13;34.60;;;32.50;;
21569;SDS011;57598;50.888;4.746;2022-08-01T01:45:43;33.85;;;31.85;;
21569;SDS011;57598;50.888;4.746;2022-08-01T01:48:12;36.70;;;34.17;;
21569;SDS011;57598;50.888;4.746;2022-08-01T01:50:41;34.72;;;32.70;;
21569;SDS011;57598;50.888;4.746;2022-08-01T01:53:09;34.83;;;32.83;;
21569;SDS011;57598;50.888;4.746;2022-08-01T01:55:38;34.33;;;32.33;;
21569;SDS011;57598;50.888;4.746;2022-08-01T01:58:07;35.42;;;33.33;;
21569;SDS011;57598;50.888;4.746;2022-08-01T02:00:36;40.28;;;37.22;;
21569;SDS011;57598;50.888;4.746;2022-08-01T02:03:08;34.40;;;32.40;;
21569;SDS011;57598;50.888;4.746;2022-08-01T02:05:36;34.40;;;32.40;;
21569;SDS011;57598;50.888;4.746;2022-08-01T02:08:05;34.88;;;32.88;;
21569;SDS011;57598;50.888;4.746;2022-08-01T02:10:34;34.95;;;32.85;;
21569;SDS011;57598;50.888;4.746;2022-08-01T02:13:03;35.25;;;33.15;;
21569;SDS011;57598;50.888;4.746;2022-08-01T02:15:31;36.58;;;33.95;;
21569;SDS011;57598;50.888;4.746;2022-08-01T02:18:03;34.85;;;32.75;;
21569;SDS011;57598;50.888;4.746;2022-08-01T02:20:34;34.05;;;32.05;;
21569;SDS011;57598;50.888;4.746;2022-08-01T02:23:05;34.65;;;32.65;;
21569;SDS011;57598;50.888;4.746;2022-08-01T02:25:38;35.00;;;33.00;;
21569;SDS011;57598;50.888;4.746;2022-08-01T02:28:09;34.60;;;32.60;;
21569;SDS011;57598;50.888;4.746;2022-08-01T02:30:41;35.40;;;33.20;;
21569;SDS011;57598;50.888;4.746;2022-08-01T02:33:14;35.60;;;33.30;;
21569;SDS011;57598;50.888;4.746;2022-08-01T02:35:47;36.58;;;34.22;;
21569;SDS011;57598;50.888;4.746;2022-08-01T02:38:16;36.92;;;34.63;;
21569;SDS011;57598;50.888;4.746;2022-08-01T02:40:47;37.45;;;34.33;;
21569;SDS011;57598;50.888;4.746;2022-08-01T02:43:17;35.88;;;33.78;;
21569;SDS011;57598;50.888;4.746;2022-08-01T02:45:49;35.58;;;33.47;;
21569;SDS011;57598;50.888;4.746;2022-08-01T02:48:21;35.08;;;33.03;;
21569;SDS011;57598;50.888;4.746;2022-08-01T02:50:51;35.58;;;33.47;;
21569;SDS011;57598;50.888;4.746;2022-08-01T02:53:21;35.60;;;33.50;;
21569;SDS011;57598;50.888;4.746;2022-08-01T02:55:51;35.80;;;33.70;;
21569;SDS011;57598;50.888;4.746;2022-08-01T02:58:20;36.45;;;34.30;;
21569;SDS011;57598;50.888;4.746;2022-08-01T03:00:49;35.60;;;33.50;;
21569;SDS011;57598;50.888;4.746;2022-08-01T03:03:17;36.25;;;34.10;;
21569;SDS011;57598;50.888;4.746;2022-08-01T03:05:45;39.20;;;36.65;;
21569;SDS011;57598;50.888;4.746;2022-08-01T03:08:13;38.05;;;35.72;;
21569;SDS011;57598;50.888;4.746;2022-08-01T03:10:43;37.83;;;35.53;;
21569;SDS011;57598;50.888;4.746;2022-08-01T03:13:11;39.30;;;36.80;;
21569;SDS011;57598;50.888;4.746;2022-08-01T03:15:41;40.08;;;37.47;;
21569;SDS011;57598;50.888;4.746;2022-08-01T03:18:09;38.22;;;35.92;;
21569;SDS011;57598;50.888;4.746;2022-08-01T03:20:37;40.03;;;37.50;;
21569;SDS011;57598;50.888;4.746;2022-08-01T03:23:07;37.80;;;35.50;;
21569;SDS011;57598;50.888;4.746;2022-08-01T03:25:36;37.92;;;35.63;;
21569;SDS011;57598;50.888;4.746;2022-08-01T03:28:06;42.97;;;39.03;;
21569;SDS011;57598;50.888;4.746;2022-08-01T03:30:34;38.35;;;36.05;;
21569;SDS011;57598;50.888;4.746;2022-08-01T03:33:03;39.45;;;37.05;;
21569;SDS011;57598;50.888;4.746;2022-08-01T03:35:30;40.97;;;38.20;;
21569;SDS011;57598;50.888;4.746;2022-08-01T03:38:03;41.97;;;39.38;;
21569;SDS011;57598;50.888;4.746;2022-08-01T03:40:37;42.40;;;39.45;;
21569;SDS011;57598;50.888;4.746;2022-08-01T03:43:07;42.70;;;39.60;;
21569;SDS011;57598;50.888;4.746;2022-08-01T03:45:40;48.33;;;44.28;;
21569;SDS011;57598;50.888;4.746;2022-08-01T03:48:09;45.85;;;42.65;;
21569;SDS011;57598;50.888;4.746;2022-08-01T03:50:39;44.90;;;41.90;;
21569;SDS011;57598;50.888;4.746;2022-08-01T03:53:10;45.35;;;42.35;;
21569;SDS011;57598;50.888;4.746;2022-08-01T03:55:39;42.10;;;39.40;;
21569;SDS011;57598;50.888;4.746;2022-08-01T04:00:36;45.78;;;42.47;;
21569;SDS011;57598;50.888;4.746;2022-08-01T04:03:05;44.13;;;41.22;;
21569;SDS011;57598;50.888;4.746;2022-08-01T04:05:34;43.30;;;40.50;;
21569;SDS011;57598;50.888;4.746;2022-08-01T04:08:01;41.55;;;38.95;;
21569;SDS011;57598;50.888;4.746;2022-08-01T04:10:29;43.15;;;40.35;;
21569;SDS011;57598;50.888;4.746;2022-08-01T04:12:57;41.47;;;38.78;;
21569;SDS011;57598;50.888;4.746;2022-08-01T04:15:24;45.40;;;42.20;;
21569;SDS011;57598;50.888;4.746;2022-08-01T04:17:51;44.38;;;41.38;;
21569;SDS011;57598;50.888;4.746;2022-08-01T04:20:19;44.20;;;41.20;;
21569;SDS011;57598;50.888;4.746;2022-08-01T04:22:46;47.00;;;43.70;;
21569;SDS011;57598;50.888;4.746;2022-08-01T04:25:14;45.83;;;42.65;;
21569;SDS011;57598;50.888;4.746;2022-08-01T04:27:46;50.47;;;46.92;;
21569;SDS011;57598;50.888;4.746;2022-08-01T04:30:20;47.95;;;44.45;;
21569;SDS011;57598;50.888;4.746;2022-08-01T04:32:50;46.65;;;43.35;;
21569;SDS011;57598;50.888;4.746;2022-08-01T04:35:20;47.77;;;44.27;;
21569;SDS011;57598;50.888;4.746;2022-08-01T04:37:48;49.50;;;45.88;;
21569;SDS011;57598;50.888;4.746;2022-08-01T04:40:17;50.13;;;46.35;;
21569;SDS011;57598;50.888;4.746;2022-08-01T04:42:46;50.97;;;47.28;;
21569;SDS011;57598;50.888;4.746;2022-08-01T04:45:18;47.50;;;43.85;;
21569;SDS011;57598;50.888;4.746;2022-08-01T04:47:47;48.60;;;45.10;;
21569;SDS011;57598;50.888;4.746;2022-08-01T04:50:15;47.05;;;43.75;;
21569;SDS011;57598;50.888;4.746;2022-08-01T04:52:43;46.35;;;43.10;;
21569;SDS011;57598;50.888;4.746;2022-08-01T04:55:12;49.25;;;45.58;;
21569;SDS011;57598;50.888;4.746;2022-08-01T04:57:39;47.85;;;44.50;;
21569;SDS011;57598;50.888;4.746;2022-08-01T05:00:09;47.00;;;43.50;;
21569;SDS011;57598;50.888;4.746;2022-08-01T05:02:37;47.90;;;44.40;;
21569;SDS011;57598;50.888;4.746;2022-08-01T05:05:05;45.05;;;41.95;;
21569;SDS011;57598;50.888;4.746;2022-08-01T05:07:32;44.22;;;41.22;;
21569;SDS011;57598;50.888;4.746;2022-08-01T05:10:01;45.00;;;42.03;;
21569;SDS011;57598;50.888;4.746;2022-08-01T05:12:28;44.33;;;41.42;;
21569;SDS011;57598;50.888;4.746;2022-08-01T05:14:56;43.80;;;40.90;;
21569;SDS011;57598;50.888;4.746;2022-08-01T05:17:23;42.13;;;39.42;;
21569;SDS011;57598;50.888;4.746;2022-08-01T05:19:52;42.85;;;40.15;;
21569;SDS011;57598;50.888;4.746;2022-08-01T05:22:19;40.92;;;38.33;;
21569;SDS011;57598;50.888;4.746;2022-08-01T05:24:47;40.72;;;38.13;;
21569;SDS011;57598;50.888;4.746;2022-08-01T05:27:14;41.10;;;38.45;;
21569;SDS011;57598;50.888;4.746;2022-08-01T05:29:41;40.40;;;37.90;;
21569;SDS011;57598;50.888;4.746;2022-08-01T05:32:08;41.92;;;38.92;;
21569;SDS011;57598;50.888;4.746;2022-08-01T05:34:35;40.15;;;37.70;;
21569;SDS011;57598;50.888;4.746;2022-08-01T05:37:03;39.35;;;36.95;;
21569;SDS011;57598;50.888;4.746;2022-08-01T05:39:31;40.22;;;37.75;;
21569;SDS011;57598;50.888;4.746;2022-08-01T05:41:57;40.63;;;38.13;;
21569;SDS011;57598;50.888;4.746;2022-08-01T05:44:25;39.33;;;36.90;;
21569;SDS011;57598;50.888;4.746;2022-08-01T05:46:51;39.83;;;37.42;;
21569;SDS011;57598;50.888;4.746;2022-08-01T05:49:18;37.15;;;35.05;;
21569;SDS011;57598;50.888;4.746;2022-08-01T05:51:45;36.47;;;34.47;;
21569;SDS011;57598;50.888;4.746;2022-08-01T05:54:14;35.33;;;33.33;;
21569;SDS011;57598;50.888;4.746;2022-08-01T05:56:41;36.85;;;34.70;;
21569;SDS011;57598;50.888;4.746;2022-08-01T05:59:08;35.55;;;33.55;;
21569;SDS011;57598;50.888;4.746;2022-08-01T06:01:35;34.85;;;32.95;;
21569;SDS011;57598;50.888;4.746;2022-08-01T06:04:03;35.10;;;33.10;;
21569;SDS011;57598;50.888;4.746;2022-08-01T06:06:30;34.08;;;32.28;;
21569;SDS011;57598;50.888;4.746;2022-08-01T06:08:57;35.05;;;33.15;;
21569;SDS011;57598;50.888;4.746;2022-08-01T06:11:25;33.88;;;31.98;;
21569;SDS011;57598;50.888;4.746;2022-08-01T06:13:52;34.90;;;32.72;;
21569;SDS011;57598;50.888;4.746;2022-08-01T06:16:19;67.72;;;46.25;;
21569;SDS011;57598;50.888;4.746;2022-08-01T06:18:46;32.65;;;30.80;;
21569;SDS011;57598;50.888;4.746;2022-08-01T06:21:13;32.75;;;30.85;;
21569;SDS011;57598;50.888;4.746;2022-08-01T06:23:40;33.40;;;31.50;;
21569;SDS011;57598;50.888;4.746;2022-08-01T06:26:07;32.42;;;30.73;;
21569;SDS011;57598;50.888;4.746;2022-08-01T06:28:36;32.95;;;31.15;;
21569;SDS011;57598;50.888;4.746;2022-08-01T06:31:03;30.45;;;28.85;;
21569;SDS011;57598;50.888;4.746;2022-08-01T06:33:30;31.02;;;29.33;;
21569;SDS011;57598;50.888;4.746;2022-08-01T06:35:57;30.88;;;29.27;;
21569;SDS011;57598;50.888;4.746;2022-08-01T06:38:24;29.40;;;27.90;;
21569;SDS011;57598;50.888;4.746;2022-08-01T06:40:51;28.20;;;26.70;;
21569;SDS011;57598;50.888;4.746;2022-08-01T06:43:18;26.58;;;25.17;;
21569;SDS011;57598;50.888;4.746;2022-08-01T06:45:46;27.10;;;25.70;;
21569;SDS011;57598;50.888;4.746;2022-08-01T06:48:13;25.95;;;24.55;;
21569;SDS011;57598;50.888;4.746;2022-08-01T06:50:40;25.05;;;22.75;;
21569;SDS011;57598;50.888;4.746;2022-08-01T06:53:07;24.13;;;22.83;;
21569;SDS011;57598;50.888;4.746;2022-08-01T06:55:34;24.85;;;23.45;;
21569;SDS011;57598;50.888;4.746;2022-08-01T06:58:01;23.70;;;22.40;;
21569;SDS011;57598;50.888;4.746;2022-08-01T07:00:28;24.02;;;22.73;;
21569;SDS011;57598;50.888;4.746;2022-08-01T07:02:57;23.75;;;22.38;;
21569;SDS011;57598;50.888;4.746;2022-08-01T07:05:24;22.45;;;21.25;;
21569;SDS011;57598;50.888;4.746;2022-08-01T07:07:52;23.40;;;22.10;;
21569;SDS011;57598;50.888;4.746;2022-08-01T07:10:19;23.63;;;22.33;;
21569;SDS011;57598;50.888;4.746;2022-08-01T07:12:46;23.15;;;21.75;;
21569;SDS011;57598;50.888;4.746;2022-08-01T07:15:13;24.15;;;22.73;;
21569;SDS011;57598;50.888;4.746;2022-08-01T07:17:41;23.17;;;21.90;;
21569;SDS011;57598;50.888;4.746;2022-08-01T07:20:11;24.63;;;23.23;;
21569;SDS011;57598;50.888;4.746;2022-08-01T07:22:38;23.20;;;21.92;;
21569;SDS011;57598;50.888;4.746;2022-08-01T07:25:06;24.50;;;23.15;;
21569;SDS011;57598;50.888;4.746;2022-08-01T07:27:36;22.77;;;21.58;;
21569;SDS011;57598;50.888;4.746;2022-08-01T07:30:03;24.27;;;22.88;;
21569;SDS011;57598;50.888;4.746;2022-08-01T07:32:32;22.70;;;21.50;;
21569;SDS011;57598;50.888;4.746;2022-08-01T07:35:03;22.77;;;21.58;;
21569;SDS011;57598;50.888;4.746;2022-08-01T07:37:32;22.52;;;21.33;;
21569;SDS011;57598;50.888;4.746;2022-08-01T07:39:59;24.90;;;23.30;;
21569;SDS011;57598;50.888;4.746;2022-08-01T07:42:26;22.75;;;21.55;;
21569;SDS011;57598;50.888;4.746;2022-08-01T07:44:53;22.42;;;21.13;;
21569;SDS011;57598;50.888;4.746;2022-08-01T07:47:23;21.83;;;20.63;;
21569;SDS011;57598;50.888;4.746;2022-08-01T07:49:50;22.23;;;20.92;;
21569;SDS011;57598;50.888;4.746;2022-08-01T07:52:17;19.75;;;18.65;;
21569;SDS011;57598;50.888;4.746;2022-08-01T07:54:46;20.70;;;19.55;;
21569;SDS011;57598;50.888;4.746;2022-08-01T07:57:12;19.98;;;18.88;;
21569;SDS011;57598;50.888;4.746;2022-08-01T07:59:39;19.88;;;18.67;;
21569;SDS011;57598;50.888;4.746;2022-08-01T08:02:06;19.88;;;18.77;;
21569;SDS011;57598;50.888;4.746;2022-08-01T08:04:33;19.92;;;18.83;;
21569;SDS011;57598;50.888;4.746;2022-08-01T08:07:00;20.38;;;19.27;;
21569;SDS011;57598;50.888;4.746;2022-08-01T08:09:28;20.00;;;18.90;;
21569;SDS011;57598;50.888;4.746;2022-08-01T08:11:56;20.05;;;18.95;;
21569;SDS011;57598;50.888;4.746;2022-08-01T08:14:23;21.58;;;20.38;;
21569;SDS011;57598;50.888;4.746;2022-08-01T08:16:50;20.13;;;19.02;;
21569;SDS011;57598;50.888;4.746;2022-08-01T08:19:17;19.70;;;18.60;;
21569;SDS011;57598;50.888;4.746;2022-08-01T08:21:44;19.30;;;18.20;;
21569;SDS011;57598;50.888;4.746;2022-08-01T08:24:11;19.42;;;18.27;;
21569;SDS011;57598;50.888;4.746;2022-08-01T08:26:49;18.08;;;17.08;;
21569;SDS011;57598;50.888;4.746;2022-08-01T08:29:19;18.20;;;17.20;;
21569;SDS011;57598;50.888;4.746;2022-08-01T08:31:46;17.60;;;16.60;;
21569;SDS011;57598;50.888;4.746;2022-08-01T08:34:14;16.20;;;15.30;;
21569;SDS011;57598;50.888;4.746;2022-08-01T08:36:41;18.00;;;16.90;;
21569;SDS011;57598;50.888;4.746;2022-08-01T08:39:08;16.73;;;15.73;;
21569;SDS011;57598;50.888;4.746;2022-08-01T08:41:35;16.02;;;15.13;;
21569;SDS011;57598;50.888;4.746;2022-08-01T08:44:03;18.92;;;17.10;;
21569;SDS011;57598;50.888;4.746;2022-08-01T08:46:33;17.55;;;16.55;;
21569;SDS011;57598;50.888;4.746;2022-08-01T08:49:04;17.73;;;16.73;;
21569;SDS011;57598;50.888;4.746;2022-08-01T08:51:34;17.55;;;16.55;;
21569;SDS011;57598;50.888;4.746;2022-08-01T08:54:04;17.17;;;16.08;;
21569;SDS011;57598;50.888;4.746;2022-08-01T08:56:32;16.65;;;15.65;;
21569;SDS011;57598;50.888;4.746;2022-08-01T08:59:02;16.63;;;15.63;;
21569;SDS011;57598;50.888;4.746;2022-08-01T09:01:30;17.65;;;16.65;;
21569;SDS011;57598;50.888;4.746;2022-08-01T09:04:00;16.35;;;15.35;;
21569;SDS011;57598;50.888;4.746;2022-08-01T09:06:27;17.92;;;16.92;;
21569;SDS011;57598;50.888;4.746;2022-08-01T09:08:55;18.02;;;16.92;;
21569;SDS011;57598;50.888;4.746;2022-08-01T09:11:22;17.73;;;16.73;;
21569;SDS011;57598;50.888;4.746;2022-08-01T09:14:03;18.98;;;17.88;;
21569;SDS011;57598;50.888;4.746;2022-08-01T09:16:33;18.83;;;17.73;;
21569;SDS011;57598;50.888;4.746;2022-08-01T09:19:08;17.67;;;16.52;;
21569;SDS011;57598;50.888;4.746;2022-08-01T09:21:37;17.25;;;16.25;;
21569;SDS011;57598;50.888;4.746;2022-08-01T09:24:12;18.15;;;17.05;;
21569;SDS011;57598;50.888;4.746;2022-08-01T09:26:40;17.88;;;16.88;;
21569;SDS011;57598;50.888;4.746;2022-08-01T09:29:17;17.77;;;16.77;;
21569;SDS011;57598;50.888;4.746;2022-08-01T09:31:47;18.08;;;17.08;;
21569;SDS011;57598;50.888;4.746;2022-08-01T09:34:15;19.80;;;18.70;;
21569;SDS011;57598;50.888;4.746;2022-08-01T09:36:43;19.80;;;18.60;;
21569;SDS011;57598;50.888;4.746;2022-08-01T09:39:14;18.77;;;17.67;;
21569;SDS011;57598;50.888;4.746;2022-08-01T09:41:41;18.77;;;17.67;;
21569;SDS011;57598;50.888;4.746;2022-08-01T09:44:08;17.85;;;16.80;;
21569;SDS011;57598;50.888;4.746;2022-08-01T09:46:35;17.58;;;16.58;;
21569;SDS011;57598;50.888;4.746;2022-08-01T09:49:04;17.60;;;16.60;;
21569;SDS011;57598;50.888;4.746;2022-08-01T09:51:32;19.00;;;17.90;;
21569;SDS011;57598;50.888;4.746;2022-08-01T09:54:01;19.63;;;18.42;;
21569;SDS011;57598;50.888;4.746;2022-08-01T09:56:35;19.33;;;18.23;;
21569;SDS011;57598;50.888;4.746;2022-08-01T09:59:03;19.00;;;17.90;;
21569;SDS011;57598;50.888;4.746;2022-08-01T10:01:41;20.63;;;19.38;;
21569;SDS011;57598;50.888;4.746;2022-08-01T10:04:11;18.50;;;17.30;;
21569;SDS011;57598;50.888;4.746;2022-08-01T10:06:39;19.02;;;17.92;;
21569;SDS011;57598;50.888;4.746;2022-08-01T10:09:09;19.05;;;17.95;;
21569;SDS011;57598;50.888;4.746;2022-08-01T10:11:37;20.73;;;19.42;;
21569;SDS011;57598;50.888;4.746;2022-08-01T10:14:07;20.25;;;19.05;;
21569;SDS011;57598;50.888;4.746;2022-08-01T10:16:35;19.50;;;18.30;;
21569;SDS011;57598;50.888;4.746;2022-08-01T10:19:02;19.25;;;17.63;;
21569;SDS011;57598;50.888;4.746;2022-08-01T10:21:33;18.50;;;17.40;;
21569;SDS011;57598;50.888;4.746;2022-08-01T10:24:02;17.88;;;16.88;;
21569;SDS011;57598;50.888;4.746;2022-08-01T10:26:33;18.10;;;17.00;;
21569;SDS011;57598;50.888;4.746;2022-08-01T10:29:00;18.58;;;17.48;;
21569;SDS011;57598;50.888;4.746;2022-08-01T10:31:29;18.15;;;17.05;;
21569;SDS011;57598;50.888;4.746;2022-08-01T10:33:58;17.08;;;16.08;;
21569;SDS011;57598;50.888;4.746;2022-08-01T10:36:26;16.42;;;15.45;;
21569;SDS011;57598;50.888;4.746;2022-08-01T10:38:55;18.15;;;17.05;;
21569;SDS011;57598;50.888;4.746;2022-08-01T10:41:23;17.17;;;16.17;;
21569;SDS011;57598;50.888;4.746;2022-08-01T10:43:51;18.13;;;17.13;;
21569;SDS011;57598;50.888;4.746;2022-08-01T10:46:19;19.42;;;18.23;;
21569;SDS011;57598;50.888;4.746;2022-08-01T10:48:47;18.23;;;17.13;;
21569;SDS011;57598;50.888;4.746;2022-08-01T10:51:18;18.40;;;17.30;;
21569;SDS011;57598;50.888;4.746;2022-08-01T10:53:46;18.38;;;17.30;;
21569;SDS011;57598;50.888;4.746;2022-08-01T10:56:15;17.58;;;16.55;;
21569;SDS011;57598;50.888;4.746;2022-08-01T10:58:43;17.40;;;16.40;;
21569;SDS011;57598;50.888;4.746;2022-08-01T11:01:16;17.42;;;16.42;;
21569;SDS011;57598;50.888;4.746;2022-08-01T11:03:56;17.13;;;16.13;;
21569;SDS011;57598;50.888;4.746;2022-08-01T11:06:25;18.02;;;16.92;;
21569;SDS011;57598;50.888;4.746;2022-08-01T11:09:03;19.13;;;18.00;;
21569;SDS011;57598;50.888;4.746;2022-08-01T11:11:32;18.20;;;17.20;;
21569;SDS011;57598;50.888;4.746;2022-08-01T11:14:24;19.17;;;18.08;;
21569;SDS011;57598;50.888;4.746;2022-08-01T11:16:52;19.83;;;18.67;;
21569;SDS011;57598;50.888;4.746;2022-08-01T11:19:19;18.52;;;17.45;;
21569;SDS011;57598;50.888;4.746;2022-08-01T11:21:59;19.65;;;18.50;;
21569;SDS011;57598;50.888;4.746;2022-08-01T11:24:53;19.80;;;18.60;;
21569;SDS011;57598;50.888;4.746;2022-08-01T11:27:26;18.65;;;17.55;;
21569;SDS011;57598;50.888;4.746;2022-08-01T11:32:55;18.00;;;17.00;;
21569;SDS011;57598;50.888;4.746;2022-08-01T11:35:23;18.80;;;17.70;;
21569;SDS011;57598;50.888;4.746;2022-08-01T11:37:52;19.05;;;17.80;;
21569;SDS011;57598;50.888;4.746;2022-08-01T11:40:22;17.98;;;16.88;;
21569;SDS011;57598;50.888;4.746;2022-08-01T11:45:47;18.55;;;17.45;;
21569;SDS011;57598;50.888;4.746;2022-08-01T11:48:18;19.02;;;17.92;;
21569;SDS011;57598;50.888;4.746;2022-08-01T11:50:46;17.35;;;16.35;;
21569;SDS011;57598;50.888;4.746;2022-08-01T11:53:13;17.27;;;16.27;;
21569;SDS011;57598;50.888;4.746;2022-08-01T11:55:43;18.42;;;17.33;;
21569;SDS011;57598;50.888;4.746;2022-08-01T11:58:15;17.88;;;16.85;;
21569;SDS011;57598;50.888;4.746;2022-08-01T12:00:49;18.45;;;17.35;;
21569;SDS011;57598;50.888;4.746;2022-08-01T12:03:17;17.80;;;16.80;;
21569;SDS011;57598;50.888;4.746;2022-08-01T12:05:50;17.85;;;16.85;;
21569;SDS011;57598;50.888;4.746;2022-08-01T12:08:23;18.30;;;17.00;;
21569;SDS011;57598;50.888;4.746;2022-08-01T12:10:51;17.88;;;16.88;;
21569;SDS011;57598;50.888;4.746;2022-08-01T12:13:19;18.23;;;17.13;;
21569;SDS011;57598;50.888;4.746;2022-08-01T12:15:47;18.33;;;17.20;;
21569;SDS011;57598;50.888;4.746;2022-08-01T12:18:15;18.33;;;17.23;;
21569;SDS011;57598;50.888;4.746;2022-08-01T12:20:43;18.17;;;17.08;;
21569;SDS011;57598;50.888;4.746;2022-08-01T12:23:12;18.38;;;17.27;;
21569;SDS011;57598;50.888;4.746;2022-08-01T12:25:40;18.85;;;17.75;;
21569;SDS011;57598;50.888;4.746;2022-08-01T12:28:11;17.45;;;16.45;;
21569;SDS011;57598;50.888;4.746;2022-08-01T12:30:40;18.27;;;17.27;;
21569;SDS011;57598;50.888;4.746;2022-08-01T12:33:08;18.33;;;17.23;;
21569;SDS011;57598;50.888;4.746;2022-08-01T12:35:37;19.02;;;17.92;;
21569;SDS011;57598;50.888;4.746;2022-08-01T12:38:07;18.25;;;17.25;;
21569;SDS011;57598;50.888;4.746;2022-08-01T12:40:41;18.45;;;17.35;;
21569;SDS011;57598;50.888;4.746;2022-08-01T12:43:09;18.30;;;17.30;;
21569;SDS011;57598;50.888;4.746;2022-08-01T12:45:43;19.30;;;18.15;;
21569;SDS011;57598;50.888;4.746;2022-08-01T12:48:12;17.85;;;16.85;;
21569;SDS011;57598;50.888;4.746;2022-08-01T12:50:40;19.40;;;18.20;;
21569;SDS011;57598;50.888;4.746;2022-08-01T12:53:10;18.80;;;17.70;;
21569;SDS011;57598;50.888;4.746;2022-08-01T12:55:43;18.13;;;17.13;;
21569;SDS011;57598;50.888;4.746;2022-08-01T12:58:12;18.10;;;17.10;;
21569;SDS011;57598;50.888;4.746;2022-08-01T13:00:39;18.48;;;17.38;;
21569;SDS011;57598;50.888;4.746;2022-08-01T13:03:10;19.40;;;18.10;;
21569;SDS011;57598;50.888;4.746;2022-08-01T13:05:43;18.48;;;17.40;;
21569;SDS011;57598;50.888;4.746;2022-08-01T13:08:11;17.98;;;16.98;;
21569;SDS011;57598;50.888;4.746;2022-08-01T13:10:39;18.15;;;17.15;;
21569;SDS011;57598;50.888;4.746;2022-08-01T13:13:07;18.13;;;17.13;;
21569;SDS011;57598;50.888;4.746;2022-08-01T13:15:35;17.67;;;16.67;;
21569;SDS011;57598;50.888;4.746;2022-08-01T13:21:06;18.85;;;17.75;;
21569;SDS011;57598;50.888;4.746;2022-08-01T13:23:34;19.13;;;18.02;;
21569;SDS011;57598;50.888;4.746;2022-08-01T13:26:01;19.58;;;18.48;;
21569;SDS011;57598;50.888;4.746;2022-08-01T13:28:29;18.77;;;17.67;;
21569;SDS011;57598;50.888;4.746;2022-08-01T13:30:57;18.73;;;17.63;;
21569;SDS011;57598;50.888;4.746;2022-08-01T13:33:27;18.48;;;17.42;;
21569;SDS011;57598;50.888;4.746;2022-08-01T13:36:06;17.90;;;16.90;;
21569;SDS011;57598;50.888;4.746;2022-08-01T13:38:33;17.65;;;16.65;;
21569;SDS011;57598;50.888;4.746;2022-08-01T13:41:17;17.95;;;16.95;;
21569;SDS011;57598;50.888;4.746;2022-08-01T13:43:44;18.17;;;17.08;;
21569;SDS011;57598;50.888;4.746;2022-08-01T13:46:11;17.65;;;16.65;;
21569;SDS011;57598;50.888;4.746;2022-08-01T13:48:39;17.63;;;16.52;;
21569;SDS011;57598;50.888;4.746;2022-08-01T13:51:06;16.58;;;15.57;;
21569;SDS011;57598;50.888;4.746;2022-08-01T13:53:33;16.95;;;15.95;;
21569;SDS011;57598;50.888;4.746;2022-08-01T13:56:00;18.60;;;17.50;;
21569;SDS011;57598;50.888;4.746;2022-08-01T13:58:27;17.98;;;16.95;;
21569;SDS011;57598;50.888;4.746;2022-08-01T14:00:54;18.60;;;17.50;;
21569;SDS011;57598;50.888;4.746;2022-08-01T14:03:22;18.27;;;17.17;;
21569;SDS011;57598;50.888;4.746;2022-08-01T14:05:51;18.17;;;17.17;;
21569;SDS011;57598;50.888;4.746;2022-08-01T14:08:18;18.70;;;17.60;;
21569;SDS011;57598;50.888;4.746;2022-08-01T14:10:45;18.30;;;17.30;;
21569;SDS011;57598;50.888;4.746;2022-08-01T14:13:12;18.70;;;17.60;;
21569;SDS011;57598;50.888;4.746;2022-08-01T14:15:39;18.20;;;17.20;;
21569;SDS011;57598;50.888;4.746;2022-08-01T14:18:06;17.45;;;16.45;;
21569;SDS011;57598;50.888;4.746;2022-08-01T14:20:34;17.20;;;16.20;;
21569;SDS011;57598;50.888;4.746;2022-08-01T14:23:03;17.73;;;16.73;;
21569;SDS011;57598;50.888;4.746;2022-08-01T14:25:30;17.83;;;16.83;;
21569;SDS011;57598;50.888;4.746;2022-08-01T14:27:57;19.10;;;18.00;;
21569;SDS011;57598;50.888;4.746;2022-08-01T14:30:24;19.20;;;18.00;;
21569;SDS011;57598;50.888;4.746;2022-08-01T14:32:51;18.75;;;17.65;;
21569;SDS011;57598;50.888;4.746;2022-08-01T14:35:18;18.52;;;17.48;;
21569;SDS011;57598;50.888;4.746;2022-08-01T14:37:45;18.85;;;17.75;;
21569;SDS011;57598;50.888;4.746;2022-08-01T14:40:13;19.67;;;18.58;;
21569;SDS011;57598;50.888;4.746;2022-08-01T14:42:40;18.73;;;17.63;;